Time;durP1;ratioP1;P1;durP2;ratioP2;P2;SDS_P1;SDS_P2;PMS_P1;PMS_P2;Temp;Humidity;BMP_temperature;BMP_pressure;BME280_temperature;BME280_humidity;BME280_pressure;Samples;Min_cycle;Max_cycle;Signal;HPM_P1;HPM_P2
2023/04/13 00:02:57;;;;;;;3.70;3.60;;;9.30;99.90;;;;;;10459078;28;20200;-80
2023/04/13 00:08:01;;;;;;;3.30;3.20;;;9.20;99.90;;;;;;10458760;28;20214;-80
2023/04/13 00:13:05;;;;;;;3.20;3.10;;;9.10;99.90;;;;;;10457778;28;20705;-80
2023/04/13 00:18:09;;;;;;;2.90;2.80;;;9.10;99.90;;;;;;10457505;28;20676;-80
2023/04/13 00:23:11;;;;;;;2.77;2.67;;;9.00;99.90;;;;;;10455676;28;20201;-81
2023/04/13 00:28:15;;;;;;;2.80;2.60;;;8.90;99.90;;;;;;10438226;28;20216;-80
2023/04/13 00:33:17;;;;;;;2.60;2.50;;;8.90;99.90;;;;;;10459504;28;20218;-81
2023/04/13 00:38:22;;;;;;;2.80;2.70;;;8.90;99.90;;;;;;10475797;28;20227;-79
2023/04/13 00:43:31;;;;;;;2.70;2.60;;;8.90;99.90;;;;;;10463951;28;20221;-81
2023/04/13 00:48:34;;;;;;;4.27;2.53;;;8.90;99.90;;;;;;10463967;28;20255;-80
2023/04/13 00:53:37;;;;;;;2.50;2.40;;;8.90;99.90;;;;;;10467557;28;20302;-81
2023/04/13 00:58:41;;;;;;;2.50;2.40;;;9.00;99.90;;;;;;10459076;28;20685;-80
2023/04/13 01:03:43;;;;;;;2.47;2.20;;;8.90;99.90;;;;;;10455741;28;20199;-81
2023/04/13 01:08:52;;;;;;;2.30;2.20;;;9.00;99.90;;;;;;10461437;28;20239;-81
2023/04/13 01:14:06;;;;;;;3.10;2.33;;;9.00;99.90;;;;;;10468012;28;20286;-81
2023/04/13 01:19:15;;;;;;;2.07;1.97;;;9.00;99.90;;;;;;10469794;28;20226;-81
2023/04/13 01:24:32;;;;;;;2.20;2.10;;;9.00;99.90;;;;;;10452261;28;20616;-81
2023/04/13 01:29:40;;;;;;;2.70;2.50;;;8.90;99.90;;;;;;10470055;28;20227;-80
2023/04/13 01:34:44;;;;;;;2.10;2.00;;;8.80;99.90;;;;;;10474927;28;20262;-81
2023/04/13 01:39:47;;;;;;;4.13;2.00;;;8.80;99.90;;;;;;10456170;28;20224;-81
2023/04/13 01:45:00;;;;;;;2.30;2.20;;;8.70;99.90;;;;;;10470389;28;20200;-82
2023/04/13 01:50:12;;;;;;;2.20;2.10;;;8.70;99.90;;;;;;10453689;28;20274;-81
2023/04/13 01:55:30;;;;;;;1.90;1.80;;;8.60;99.90;;;;;;10472240;28;20202;-81
2023/04/13 02:00:35;;;;;;;1.90;1.80;;;8.50;99.90;;;;;;10483731;28;20225;-81
2023/04/13 02:05:41;;;;;;;1.80;1.70;;;8.40;99.90;;;;;;10470551;28;20199;-80
2023/04/13 02:10:47;;;;;;;1.70;1.60;;;8.30;99.90;;;;;;10471144;28;20666;-81
2023/04/13 02:15:52;;;;;;;2.13;2.00;;;8.10;99.90;;;;;;10475600;28;20225;-79
2023/04/13 02:21:00;;;;;;;2.30;2.20;;;8.00;99.90;;;;;;10471673;28;20249;-81
2023/04/13 02:26:04;;;;;;;2.00;1.90;;;8.00;99.90;;;;;;10470550;28;20198;-81
2023/04/13 02:31:08;;;;;;;2.30;2.07;;;8.10;99.90;;;;;;10468615;28;20307;-81
2023/04/13 02:36:11;;;;;;;2.40;2.30;;;8.10;99.90;;;;;;10463251;28;20804;-80
2023/04/13 02:41:21;;;;;;;2.20;2.00;;;8.10;99.90;;;;;;10462809;28;20218;-80
2023/04/13 02:46:26;;;;;;;2.30;2.07;;;8.10;99.90;;;;;;10463964;28;20264;-80
2023/04/13 02:51:34;;;;;;;9.07;2.23;;;8.20;99.90;;;;;;10464948;28;20222;-81
2023/04/13 02:56:36;;;;;;;2.10;2.00;;;8.20;99.90;;;;;;10446805;28;20692;-81
2023/04/13 03:01:41;;;;;;;2.00;1.90;;;8.20;99.90;;;;;;10463122;28;20229;-80
2023/04/13 03:06:47;;;;;;;2.50;2.40;;;8.20;99.90;;;;;;10447827;28;20595;-81
2023/04/13 03:11:49;;;;;;;1.37;1.37;;;8.20;99.90;;;;;;10378666;23;20249;-80
2023/04/13 03:16:58;;;;;;;2.80;2.60;;;8.20;99.90;;;;;;10381512;28;20199;-81
2023/04/13 03:22:08;;;;;;;2.47;2.37;;;8.20;99.90;;;;;;10397235;28;20231;-81
2023/04/13 03:27:20;;;;;;;2.93;2.57;;;8.20;99.90;;;;;;10375412;28;20218;-80
2023/04/13 03:32:26;;;;;;;1.87;1.87;;;8.20;99.90;;;;;;10376132;28;20218;-82
2023/04/13 03:37:39;;;;;;;2.60;1.80;;;8.20;99.90;;;;;;10359921;28;20203;-82
2023/04/13 03:42:49;;;;;;;2.80;2.27;;;8.20;99.90;;;;;;10378188;28;20195;-82
2023/04/13 03:47:53;;;;;;;2.40;2.30;;;8.10;99.90;;;;;;10358907;28;20222;-81
2023/04/13 03:52:57;;;;;;;2.20;2.10;;;8.10;99.90;;;;;;10353648;28;20718;-81
2023/04/13 03:58:00;;;;;;;2.30;2.10;;;8.10;99.90;;;;;;10359493;28;20277;-79
2023/04/13 04:03:06;;;;;;;3.63;2.60;;;8.10;99.90;;;;;;10362431;28;20201;-80
2023/04/13 04:08:19;;;;;;;2.10;2.00;;;8.10;99.90;;;;;;10379982;28;20231;-81
2023/04/13 04:13:23;;;;;;;2.43;2.10;;;8.20;99.90;;;;;;10384739;28;20219;-80
2023/04/13 04:18:30;;;;;;;3.90;2.10;;;8.30;99.90;;;;;;10365415;28;20638;-82
2023/04/13 04:23:36;;;;;;;2.23;1.97;;;8.40;99.90;;;;;;10343459;28;20214;-81
2023/04/13 04:28:41;;;;;;;2.20;2.10;;;8.50;99.90;;;;;;10373989;28;20227;-81
2023/04/13 04:33:50;;;;;;;3.37;2.73;;;8.60;99.90;;;;;;10380798;28;20231;-82
2023/04/13 04:38:56;;;;;;;2.13;1.80;;;8.70;99.90;;;;;;10363230;28;20233;-81
2023/04/13 04:44:02;;;;;;;2.80;2.10;;;8.70;99.90;;;;;;10366645;28;20198;-81
2023/04/13 04:49:09;;;;;;;2.70;2.47;;;8.70;99.90;;;;;;10372996;28;20325;-81
2023/04/13 04:54:12;;;;;;;2.13;2.00;;;8.70;99.90;;;;;;10375722;28;20215;-80
2023/04/13 04:59:16;;;;;;;2.60;2.40;;;8.70;99.90;;;;;;10375673;28;20237;-78
2023/04/13 05:04:32;;;;;;;3.43;2.30;;;8.70;99.90;;;;;;10384148;28;20552;-81
2023/04/13 05:09:36;;;;;;;2.90;2.30;;;8.80;99.90;;;;;;10359376;28;20254;-81
2023/04/13 05:14:38;;;;;;;4.10;2.50;;;8.90;99.90;;;;;;10373975;28;20217;-82
2023/04/13 05:19:42;;;;;;;2.50;2.00;;;9.00;99.90;;;;;;10374632;28;20227;-82
2023/04/13 05:24:54;;;;;;;4.70;2.20;;;9.10;99.90;;;;;;10360233;28;20230;-81
2023/04/13 05:29:59;;;;;;;2.20;2.10;;;9.10;99.90;;;;;;10361918;28;20589;-80
2023/04/13 05:35:04;;;;;;;10.70;2.57;;;9.20;99.90;;;;;;10362418;28;20286;-82
2023/04/13 05:40:12;;;;;;;7.77;3.00;;;9.20;99.90;;;;;;10380140;28;20225;-82
2023/04/13 05:45:15;;;;;;;7.27;2.20;;;9.20;99.90;;;;;;10380332;28;20225;-82
2023/04/13 05:50:33;;;;;;;4.53;2.80;;;9.30;99.90;;;;;;10381509;28;20299;-82
2023/04/13 05:55:36;;;;;;;3.80;2.13;;;9.30;99.90;;;;;;10380549;28;20198;-82
2023/04/13 06:00:41;;;;;;;4.00;2.43;;;9.40;99.90;;;;;;10372888;28;20226;-82
2023/04/13 06:05:49;;;;;;;2.37;2.17;;;9.40;99.90;;;;;;10374681;28;20217;-83
2023/04/13 06:10:51;;;;;;;6.10;2.70;;;9.40;99.90;;;;;;10372596;28;20744;-82
2023/04/13 06:15:53;;;;;;;5.40;2.60;;;9.50;99.90;;;;;;10370974;28;20729;-82
2023/04/13 06:20:58;;;;;;;3.60;2.30;;;9.60;99.90;;;;;;10388704;28;20265;-80
2023/04/13 06:26:00;;;;;;;2.50;2.30;;;9.70;99.90;;;;;;10371733;28;20202;-82
2023/04/13 06:31:16;;;;;;;5.80;2.50;;;9.70;99.90;;;;;;10389927;28;20719;-81
2023/04/13 06:36:22;;;;;;;2.57;1.93;;;9.80;99.90;;;;;;10373356;28;20195;-82
2023/04/13 06:41:27;;;;;;;6.80;2.87;;;9.80;99.90;;;;;;10372639;28;20253;-82
2023/04/13 06:46:45;;;;;;;6.03;3.03;;;9.80;99.30;;;;;;10374378;28;20225;-82
2023/04/13 06:51:49;;;;;;;7.27;2.97;;;9.80;99.90;;;;;;10390540;28;20253;-82
2023/04/13 06:56:51;;;;;;;6.13;3.93;;;9.90;99.60;;;;;;10344200;28;20204;-81
2023/04/13 07:01:55;;;;;;;3.13;2.40;;;10.00;99.60;;;;;;10344955;28;20257;-82
2023/04/13 07:06:59;;;;;;;2.30;1.70;;;10.30;99.90;;;;;;10405314;28;20206;-80
2023/04/13 07:12:03;;;;;;;2.53;2.30;;;10.60;99.80;;;;;;10389430;28;20219;-81
2023/04/13 07:17:06;;;;;;;2.33;2.10;;;10.80;98.50;;;;;;10368956;28;20655;-82
2023/04/13 07:22:10;;;;;;;3.37;1.80;;;10.90;96.20;;;;;;10385814;28;20237;-82
2023/04/13 07:27:12;;;;;;;3.63;2.23;;;10.80;97.20;;;;;;10388247;28;20250;-82
2023/04/13 07:32:15;;;;;;;5.43;2.40;;;10.80;97.10;;;;;;10370736;28;20270;-82
2023/04/13 07:37:21;;;;;;;3.37;2.50;;;10.80;97.30;;;;;;10330504;28;20209;-82
2023/04/13 07:42:24;;;;;;;4.57;2.20;;;10.80;96.40;;;;;;10379540;28;20246;-82
2023/04/13 07:47:28;;;;;;;2.60;2.13;;;10.90;97.20;;;;;;10378609;28;20206;-81
2023/04/13 07:52:37;;;;;;;3.07;2.43;;;11.10;98.40;;;;;;10357704;28;20489;-82
2023/04/13 07:57:39;;;;;;;2.73;1.83;;;11.30;97.10;;;;;;10380543;28;20605;-81
2023/04/13 08:02:42;;;;;;;2.90;2.50;;;11.40;97.40;;;;;;10380269;28;20191;-82
2023/04/13 08:07:50;;;;;;;5.80;2.50;;;11.40;97.80;;;;;;10379396;28;20656;-82
2023/04/13 08:12:52;;;;;;;4.57;1.80;;;11.50;98.20;;;;;;10366445;28;20225;-82
2023/04/13 08:17:57;;;;;;;6.17;2.20;;;11.70;98.30;;;;;;10364310;28;20238;-82
2023/04/13 08:23:01;;;;;;;4.33;1.90;;;11.90;97.90;;;;;;10379413;28;20198;-82
2023/04/13 08:28:03;;;;;;;4.77;1.77;;;12.10;97.00;;;;;;10361868;28;20215;-83
2023/04/13 08:33:05;;;;;;;4.30;2.30;;;12.20;97.70;;;;;;10382177;28;20217;-81
2023/04/13 08:38:09;;;;;;;3.00;2.43;;;12.40;96.40;;;;;;10383098;28;20591;-83
2023/04/13 08:43:19;;;;;;;4.30;2.30;;;12.60;95.50;;;;;;10369504;28;20199;-84
2023/04/13 08:48:23;;;;;;;7.00;2.20;;;12.70;95.20;;;;;;10366840;28;20437;-83
2023/04/13 08:53:28;;;;;;;3.90;2.73;;;12.70;93.80;;;;;;10368161;28;20757;-82
2023/04/13 08:58:33;;;;;;;3.60;2.17;;;12.60;94.90;;;;;;10382937;28;20246;-85
2023/04/13 09:03:41;;;;;;;6.43;1.73;;;12.30;94.90;;;;;;10361817;28;20199;-82
2023/04/13 09:08:46;;;;;;;7.50;2.77;;;12.10;95.70;;;;;;10389901;23;20238;-81
2023/04/13 09:13:50;;;;;;;4.40;2.27;;;12.00;96.30;;;;;;10408792;28;20218;-81
2023/04/13 09:18:54;;;;;;;3.13;2.10;;;12.10;96.40;;;;;;10407607;28;20652;-80
2023/04/13 09:23:59;;;;;;;4.80;2.27;;;12.40;96.30;;;;;;10433610;28;20191;-81
2023/04/13 09:29:04;;;;;;;4.50;2.53;;;12.50;95.60;;;;;;10402302;28;20279;-80
2023/04/13 09:34:07;;;;;;;3.97;2.27;;;12.80;96.60;;;;;;10451167;28;20220;-81
2023/04/13 09:39:10;;;;;;;5.07;3.40;;;13.20;95.90;;;;;;10431918;28;20268;-81
2023/04/13 09:44:19;;;;;;;2.47;2.23;;;13.60;91.80;;;;;;10442693;28;20525;-80
2023/04/13 09:49:21;;;;;;;3.33;2.40;;;13.70;91.80;;;;;;10431238;28;20308;-80
2023/04/13 09:54:24;;;;;;;3.13;2.83;;;13.50;91.60;;;;;;10432570;28;20275;-80
2023/04/13 09:59:27;;;;;;;4.17;2.27;;;13.40;92.80;;;;;;10414617;28;20218;-80
2023/04/13 10:04:30;;;;;;;4.00;2.00;;;13.20;91.90;;;;;;10478935;28;20248;-80
2023/04/13 10:09:33;;;;;;;3.17;2.40;;;12.90;92.00;;;;;;10433214;28;20225;-80
2023/04/13 10:14:38;;;;;;;3.17;2.30;;;12.80;90.40;;;;;;10438649;28;20300;-80
2023/04/13 10:19:43;;;;;;;6.93;2.20;;;12.70;91.10;;;;;;10427091;28;20252;-80
2023/04/13 10:24:46;;;;;;;3.77;2.40;;;12.70;92.80;;;;;;10413069;28;20673;-80
2023/04/13 10:29:49;;;;;;;5.10;2.70;;;12.80;90.50;;;;;;10446456;28;20207;-80
2023/04/13 10:34:51;;;;;;;5.13;2.73;;;12.90;90.00;;;;;;10442943;28;20682;-80
2023/04/13 10:40:05;;;;;;;2.83;2.47;;;12.90;91.10;;;;;;10411172;28;20650;-82
2023/04/13 10:45:17;;;;;;;4.30;2.47;;;13.00;91.10;;;;;;10460581;28;20195;-80
2023/04/13 10:50:21;;;;;;;4.77;3.00;;;13.10;91.20;;;;;;10442467;28;20647;-80
2023/04/13 10:55:26;;;;;;;5.40;2.87;;;13.10;91.80;;;;;;10422803;28;20225;-80
2023/04/13 11:00:31;;;;;;;7.33;3.33;;;13.10;90.70;;;;;;10409575;28;20696;-79
2023/04/13 11:05:33;;;;;;;5.17;2.73;;;13.00;92.90;;;;;;10450924;28;20205;-81
2023/04/13 11:10:36;;;;;;;2.60;2.40;;;13.00;91.50;;;;;;10423198;28;20321;-81
2023/04/13 11:15:39;;;;;;;5.57;2.63;;;12.90;91.30;;;;;;10433259;28;20272;-79
2023/04/13 11:20:41;;;;;;;5.40;3.17;;;12.80;91.10;;;;;;10423028;28;20608;-78
2023/04/13 11:25:54;;;;;;;4.70;2.77;;;12.80;89.80;;;;;;10440189;28;20188;-80
2023/04/13 11:30:57;;;;;;;4.07;3.20;;;12.80;92.30;;;;;;10413699;28;20697;-80
2023/04/13 11:36:01;;;;;;;6.73;2.93;;;12.80;92.00;;;;;;10428940;28;20670;-78
2023/04/13 11:41:05;;;;;;;6.47;4.40;;;12.80;94.60;;;;;;10403459;28;20209;-79
2023/04/13 11:46:12;;;;;;;6.20;4.50;;;12.40;98.50;;;;;;10450323;28;20626;-79
2023/04/13 11:51:15;;;;;;;7.03;6.50;;;11.80;99.90;;;;;;10440912;28;20707;-78
2023/04/13 11:56:18;;;;;;;6.23;5.80;;;11.30;99.90;;;;;;10432282;28;20245;-80
2023/04/13 12:01:22;;;;;;;8.37;7.70;;;10.90;99.90;;;;;;10403427;28;20214;-82
2023/04/13 12:06:24;;;;;;;7.57;6.93;;;10.70;99.90;;;;;;10445759;28;20212;-78
2023/04/13 12:11:36;;;;;;;9.00;7.43;;;10.70;99.90;;;;;;10451018;28;20231;-78
2023/04/13 12:16:38;;;;;;;8.20;7.40;;;10.70;99.90;;;;;;10419070;28;20256;-78
2023/04/13 12:21:51;;;;;;;9.37;8.07;;;10.90;99.90;;;;;;10448231;28;20218;-79
2023/04/13 12:26:54;;;;;;;6.70;6.10;;;11.00;99.90;;;;;;10444367;28;20229;-80
2023/04/13 12:32:00;;;;;;;7.63;6.93;;;11.10;99.90;;;;;;10420497;28;20576;-78
2023/04/13 12:37:02;;;;;;;10.40;6.57;;;11.10;99.90;;;;;;10447255;28;20199;-79
2023/04/13 12:42:06;;;;;;;10.03;9.00;;;11.20;99.90;;;;;;10431437;28;20211;-78
2023/04/13 12:47:08;;;;;;;9.23;8.10;;;11.40;99.90;;;;;;10419557;28;20239;-80
2023/04/13 12:52:10;;;;;;;9.50;8.67;;;11.60;99.90;;;;;;10429602;28;20604;-80
2023/04/13 12:57:16;;;;;;;7.43;6.00;;;11.50;99.90;;;;;;10434260;28;20205;-79
2023/04/13 13:02:18;;;;;;;12.10;6.10;;;11.40;99.90;;;;;;10401587;28;20643;-80
2023/04/13 13:07:20;;;;;;;7.90;6.23;;;11.20;99.90;;;;;;10422719;28;20236;-80
2023/04/13 13:12:28;;;;;;;7.00;6.30;;;11.20;99.90;;;;;;10415164;28;20256;-80
2023/04/13 13:17:30;;;;;;;8.57;7.77;;;11.10;99.90;;;;;;10457866;28;20194;-81
2023/04/13 13:22:33;;;;;;;8.90;6.50;;;11.00;99.90;;;;;;10442134;28;20256;-81
2023/04/13 13:27:37;;;;;;;6.07;5.10;;;10.80;99.90;;;;;;10424434;28;20304;-80
2023/04/13 13:32:39;;;;;;;5.87;5.37;;;10.80;99.90;;;;;;10438693;28;20694;-79
2023/04/13 13:37:41;;;;;;;4.70;4.07;;;10.60;99.90;;;;;;10418672;28;20225;-81
2023/04/13 13:42:45;;;;;;;10.60;5.90;;;10.40;99.90;;;;;;10411302;28;20213;-80
2023/04/13 13:47:50;;;;;;;5.53;5.10;;;10.40;99.90;;;;;;10444652;28;20195;-80
2023/04/13 13:52:53;;;;;;;5.80;5.27;;;10.50;99.90;;;;;;10434847;28;20207;-80
2023/04/13 13:57:57;;;;;;;5.50;5.10;;;10.60;99.90;;;;;;10438216;28;20240;-80
2023/04/13 14:02:59;;;;;;;5.30;4.90;;;10.50;99.90;;;;;;10429573;28;20225;-80
2023/04/13 14:08:01;;;;;;;5.00;4.37;;;10.50;99.90;;;;;;10467216;28;20183;-79
2023/04/13 14:13:04;;;;;;;3.97;3.67;;;10.50;99.90;;;;;;10420016;28;20233;-80
2023/04/13 14:18:07;;;;;;;4.00;3.90;;;10.60;99.90;;;;;;10408490;28;20637;-80
2023/04/13 14:23:09;;;;;;;3.70;3.50;;;10.80;99.90;;;;;;10464644;28;20639;-80
2023/04/13 14:28:13;;;;;;;4.47;4.03;;;11.00;99.90;;;;;;10420110;28;20199;-80
2023/04/13 14:33:16;;;;;;;3.97;3.67;;;11.20;99.90;;;;;;10459035;28;20272;-78
2023/04/13 14:38:21;;;;;;;3.83;3.50;;;11.30;99.90;;;;;;10419655;28;20214;-79
2023/04/13 14:43:24;;;;;;;2.03;1.83;;;11.40;99.90;;;;;;10402402;28;20273;-80
2023/04/13 14:48:27;;;;;;;3.17;2.93;;;11.30;99.90;;;;;;10457253;28;20263;-78
2023/04/13 14:53:29;;;;;;;4.40;4.00;;;11.10;99.90;;;;;;10439507;28;20281;-79
2023/04/13 14:58:33;;;;;;;3.50;3.30;;;10.90;99.90;;;;;;10462524;28;20225;-81
2023/04/13 15:03:35;;;;;;;3.60;3.30;;;10.60;99.90;;;;;;10380062;28;20191;-79
2023/04/13 15:08:37;;;;;;;2.80;2.53;;;10.50;99.90;;;;;;10444218;28;20317;-80
2023/04/13 15:13:41;;;;;;;3.73;3.47;;;10.30;99.90;;;;;;10399598;28;20303;-79
2023/04/13 15:18:43;;;;;;;4.00;2.90;;;10.30;99.90;;;;;;10380444;28;20211;-82
2023/04/13 15:23:47;;;;;;;5.43;3.30;;;10.20;99.90;;;;;;10394605;28;20222;-80
2023/04/13 15:28:51;;;;;;;7.53;4.83;;;10.00;99.90;;;;;;10375466;28;20284;-78
2023/04/13 15:33:53;;;;;;;20.77;11.83;;;9.80;99.90;;;;;;10441965;28;20223;-78
2023/04/13 15:38:55;;;;;;;7.27;5.87;;;9.60;99.90;;;;;;10417486;28;20276;-78
2023/04/13 15:43:59;;;;;;;13.97;12.77;;;9.40;99.90;;;;;;10438335;28;20196;-79
2023/04/13 15:49:01;;;;;;;15.03;13.10;;;9.30;99.90;;;;;;10456203;28;20562;-79
2023/04/13 15:54:03;;;;;;;17.30;15.80;;;9.20;99.90;;;;;;10456400;28;20305;-79
2023/04/13 15:59:06;;;;;;;12.23;11.23;;;9.10;99.90;;;;;;10427361;28;20217;-79
2023/04/13 16:04:09;;;;;;;10.27;9.60;;;9.00;99.90;;;;;;10403308;28;20223;-79
2023/04/13 16:09:11;;;;;;;9.90;9.17;;;8.90;99.90;;;;;;10454637;28;20224;-78
2023/04/13 16:14:16;;;;;;;9.73;9.13;;;8.90;99.90;;;;;;10416868;28;20230;-78
2023/04/13 16:19:18;;;;;;;10.57;9.77;;;8.90;99.90;;;;;;10420483;28;20681;-79
2023/04/13 16:24:20;;;;;;;8.77;8.17;;;9.00;99.90;;;;;;10391379;28;20291;-81
2023/04/13 16:29:23;;;;;;;6.20;5.90;;;9.10;99.90;;;;;;10442913;28;20263;-79
2023/04/13 16:34:27;;;;;;;8.03;7.57;;;9.10;99.90;;;;;;10460852;28;20217;-78
2023/04/13 16:39:29;;;;;;;8.70;8.20;;;9.20;99.90;;;;;;10404476;28;20296;-78
2023/04/13 16:44:32;;;;;;;7.33;6.93;;;9.30;99.90;;;;;;10451403;28;20289;-81
2023/04/13 16:49:34;;;;;;;7.77;7.30;;;9.50;99.90;;;;;;10408976;28;20220;-80
2023/04/13 16:54:42;;;;;;;7.10;6.70;;;9.50;99.90;;;;;;10452360;28;20711;-80
2023/04/13 16:59:46;;;;;;;6.93;6.53;;;9.60;99.90;;;;;;10387672;28;20221;-78
2023/04/13 17:04:50;;;;;;;6.83;6.43;;;9.70;99.90;;;;;;10431027;28;20194;-78
2023/04/13 17:09:53;;;;;;;6.80;6.40;;;9.60;99.90;;;;;;10433360;28;20225;-79
2023/04/13 17:14:56;;;;;;;5.40;5.20;;;9.60;99.90;;;;;;10447113;28;20279;-79
2023/04/13 17:19:58;;;;;;;6.33;5.90;;;9.70;99.90;;;;;;10419962;28;20222;-79
2023/04/13 17:25:00;;;;;;;6.10;5.70;;;9.60;99.90;;;;;;10447845;28;20195;-78
2023/04/13 17:30:04;;;;;;;4.00;3.80;;;9.60;99.90;;;;;;10441490;28;20223;-78
2023/04/13 17:35:07;;;;;;;6.97;6.57;;;9.60;99.90;;;;;;10420658;28;20225;-79
2023/04/13 17:40:10;;;;;;;7.23;6.73;;;9.50;99.90;;;;;;10447046;28;20756;-78
2023/04/13 17:45:15;;;;;;;7.17;6.67;;;9.50;99.90;;;;;;10437081;28;20192;-80
2023/04/13 17:50:18;;;;;;;7.70;7.20;;;9.60;99.90;;;;;;10427947;28;20689;-79
2023/04/13 17:55:20;;;;;;;7.73;6.10;;;9.50;99.90;;;;;;10454240;28;20555;-80
2023/04/13 18:00:24;;;;;;;6.53;6.13;;;9.60;99.90;;;;;;10439009;28;20227;-80
2023/04/13 18:05:26;;;;;;;7.50;7.10;;;9.50;99.90;;;;;;10433379;28;20202;-79
2023/04/13 18:10:29;;;;;;;16.30;14.70;;;9.50;99.90;;;;;;10443538;28;20236;-79
2023/04/13 18:15:33;;;;;;;8.17;7.67;;;9.50;99.90;;;;;;10451897;28;20721;-79
2023/04/13 18:20:35;;;;;;;7.50;6.90;;;9.50;99.90;;;;;;10428910;28;20241;-77
2023/04/13 18:25:38;;;;;;;7.47;7.13;;;9.50;99.90;;;;;;10426578;28;20288;-81
2023/04/13 18:30:41;;;;;;;12.33;11.20;;;9.60;99.90;;;;;;10426325;28;20243;-77
2023/04/13 18:35:45;;;;;;;10.13;9.37;;;9.50;99.90;;;;;;10450700;28;20225;-83
2023/04/13 18:40:48;;;;;;;6.87;6.40;;;9.50;99.90;;;;;;10457840;28;20688;-81
2023/04/13 18:45:53;;;;;;;5.47;4.97;;;9.50;99.90;;;;;;10447650;28;20200;-78
2023/04/13 18:50:55;;;;;;;8.23;7.80;;;9.50;99.90;;;;;;10431714;28;20228;-77
2023/04/13 18:55:58;;;;;;;8.13;7.43;;;9.50;99.90;;;;;;10439694;28;20445;-78
2023/04/13 19:01:01;;;;;;;7.30;6.90;;;9.50;99.90;;;;;;10436797;28;20282;-79
2023/04/13 19:06:06;;;;;;;6.03;5.63;;;9.40;99.90;;;;;;10409468;28;20194;-80
2023/04/13 19:11:08;;;;;;;7.10;6.50;;;9.30;99.90;;;;;;10397392;28;20229;-82
2023/04/13 19:16:12;;;;;;;5.10;4.90;;;9.10;99.90;;;;;;10429692;28;20298;-82
2023/04/13 19:21:17;;;;;;;6.20;5.70;;;9.00;99.90;;;;;;10395707;28;20240;-81
2023/04/13 19:26:21;;;;;;;4.87;4.57;;;8.80;99.90;;;;;;10463043;28;20253;-82
2023/04/13 19:31:24;;;;;;;4.70;4.33;;;8.60;99.90;;;;;;10434988;28;20261;-82
2023/04/13 19:36:26;;;;;;;5.30;4.90;;;8.50;99.90;;;;;;10393778;28;20709;-81
2023/04/13 19:41:28;;;;;;;4.50;4.20;;;8.30;99.90;;;;;;10404193;28;20231;-81
2023/04/13 19:46:32;;;;;;;5.30;5.00;;;8.30;99.90;;;;;;10447622;28;20198;-83
2023/04/13 19:51:34;;;;;;;4.70;4.50;;;8.20;99.90;;;;;;10425004;28;20641;-83
2023/04/13 19:56:37;;;;;;;5.40;5.10;;;8.10;99.90;;;;;;10416713;28;20307;-81
2023/04/13 20:01:40;;;;;;;4.40;4.20;;;8.10;99.90;;;;;;10409617;28;20726;-83
2023/04/13 20:06:42;;;;;;;4.90;4.70;;;8.20;99.90;;;;;;10404781;28;20584;-83
2023/04/13 20:11:44;;;;;;;5.20;4.73;;;8.20;99.90;;;;;;10386596;28;20256;-82
2023/04/13 20:16:48;;;;;;;4.80;4.47;;;8.30;99.90;;;;;;10401873;28;20211;-82
2023/04/13 20:21:53;;;;;;;4.40;4.20;;;8.20;99.90;;;;;;10394745;28;20226;-83
2023/04/13 20:26:55;;;;;;;5.20;4.90;;;8.20;99.90;;;;;;10458867;28;20194;-82
2023/04/13 20:31:58;;;;;;;4.13;3.87;;;8.10;99.90;;;;;;10438208;28;20642;-83
2023/04/13 20:37:01;;;;;;;5.30;4.93;;;8.20;99.90;;;;;;10424769;28;20309;-83
2023/04/13 20:42:04;;;;;;;6.67;5.97;;;8.20;99.90;;;;;;10427927;28;20231;-82
2023/04/13 20:47:12;;;;;;;5.43;5.03;;;8.30;99.90;;;;;;10447526;28;20194;-81
2023/04/13 20:52:16;;;;;;;10.87;9.77;;;8.40;99.90;;;;;;10454185;28;20279;-78
2023/04/13 20:57:18;;;;;;;5.93;5.53;;;8.50;99.90;;;;;;10446510;28;20232;-82
2023/04/13 21:02:22;;;;;;;5.00;4.80;;;8.50;99.90;;;;;;10412764;28;20227;-80
2023/04/13 21:07:24;;;;;;;5.00;4.70;;;8.60;99.90;;;;;;10409430;28;20193;-81
2023/04/13 21:12:26;;;;;;;5.20;3.93;;;8.60;99.90;;;;;;10407205;22;20232;-79
2023/04/13 21:17:30;;;;;;;5.27;4.30;;;8.60;99.90;;;;;;10418437;28;20578;-78
2023/04/13 21:22:32;;;;;;;4.43;4.03;;;8.60;99.90;;;;;;10396444;28;20592;-79
2023/04/13 21:27:34;;;;;;;3.83;3.63;;;8.60;99.90;;;;;;10353944;28;20200;-80
2023/04/13 21:32:38;;;;;;;4.07;3.43;;;8.60;99.90;;;;;;10388394;28;20216;-80
2023/04/13 21:37:40;;;;;;;6.30;4.40;;;8.60;99.90;;;;;;10387105;28;20579;-80
2023/04/13 21:42:42;;;;;;;4.40;4.00;;;8.60;99.90;;;;;;10393757;28;20224;-79
2023/04/13 21:47:45;;;;;;;4.50;4.10;;;8.60;99.90;;;;;;10362792;28;20200;-80
2023/04/13 21:52:48;;;;;;;10.70;8.93;;;8.60;99.90;;;;;;10394790;28;20264;-81
2023/04/13 21:57:50;;;;;;;14.67;9.70;;;8.70;99.90;;;;;;10410782;28;20264;-81
2023/04/13 22:02:54;;;;;;;14.03;10.00;;;8.70;99.90;;;;;;10381192;28;20220;-82
2023/04/13 22:07:56;;;;;;;7.47;6.60;;;8.80;99.90;;;;;;10391742;28;20257;-82
2023/04/13 22:12:58;;;;;;;7.07;5.70;;;8.90;99.90;;;;;;10408577;28;20228;-80
2023/04/13 22:18:02;;;;;;;6.67;5.10;;;8.90;99.90;;;;;;10385766;28;20265;-80
2023/04/13 22:23:04;;;;;;;5.43;3.97;;;9.00;99.90;;;;;;10365743;28;20223;-80
2023/04/13 22:28:06;;;;;;;5.50;4.57;;;9.00;99.90;;;;;;10393379;28;20260;-80
2023/04/13 22:33:10;;;;;;;4.60;4.20;;;9.10;99.90;;;;;;10388906;28;20226;-79
2023/04/13 22:38:12;;;;;;;5.20;4.60;;;9.20;99.90;;;;;;10380217;28;20309;-79
2023/04/13 22:43:14;;;;;;;4.27;4.00;;;9.20;99.90;;;;;;10402616;28;20200;-80
2023/04/13 22:48:18;;;;;;;5.03;4.53;;;9.30;99.90;;;;;;10407725;28;20206;-81
2023/04/13 22:53:20;;;;;;;5.43;4.40;;;9.30;99.90;;;;;;10403931;28;20282;-79
2023/04/13 22:58:22;;;;;;;4.67;4.27;;;9.30;99.90;;;;;;10393898;28;20573;-79
2023/04/13 23:03:26;;;;;;;5.00;4.60;;;9.30;99.90;;;;;;10399233;28;20283;-79
2023/04/13 23:08:29;;;;;;;5.30;4.80;;;9.40;99.90;;;;;;10383811;28;20290;-80
2023/04/13 23:13:31;;;;;;;6.93;4.70;;;9.40;99.90;;;;;;10374745;28;20206;-79
2023/04/13 23:18:34;;;;;;;5.60;4.20;;;9.40;99.90;;;;;;10415830;28;20249;-80
2023/04/13 23:23:36;;;;;;;4.90;4.50;;;9.40;99.90;;;;;;10403669;28;20614;-80
2023/04/13 23:28:38;;;;;;;5.33;4.40;;;9.40;99.90;;;;;;10379973;28;20211;-79
2023/04/13 23:33:42;;;;;;;5.63;4.20;;;9.40;99.90;;;;;;10367118;28;20199;-79
2023/04/13 23:38:44;;;;;;;6.03;4.57;;;9.40;99.90;;;;;;10375386;28;20253;-81
2023/04/13 23:43:46;;;;;;;5.63;4.27;;;9.30;99.90;;;;;;10391649;28;20203;-81
2023/04/13 23:48:49;;;;;;;5.73;5.20;;;9.30;99.90;;;;;;10347691;28;20226;-80
2023/04/13 23:53:51;;;;;;;4.67;4.27;;;9.30;99.90;;;;;;10393323;28;20202;-80
2023/04/13 23:58:53;;;;;;;5.40;4.90;;;9.40;99.90;;;;;;10388043;28;20219;-80
